sensor_id;sensor_type;location;lat;lon;timestamp;P1;durP1;ratioP1;P2;durP2;ratioP2
54464;SDS011;40374;49.480;20.016;2023-03-12T00:00:05;13.63;;;5.65;;
54464;SDS011;40374;49.480;20.016;2023-03-12T00:02:57;15.40;;;5.32;;
54464;SDS011;40374;49.480;20.016;2023-03-12T00:05:25;17.23;;;7.43;;
54464;SDS011;40374;49.480;20.016;2023-03-12T00:07:52;21.45;;;9.20;;
54464;SDS011;40374;49.480;20.016;2023-03-12T00:10:20;22.65;;;8.80;;
54464;SDS011;40374;49.480;20.016;2023-03-12T00:12:47;16.67;;;7.05;;
54464;SDS011;40374;49.480;20.016;2023-03-12T00:15:15;24.15;;;8.32;;
54464;SDS011;40374;49.480;20.016;2023-03-12T00:17:42;45.70;;;14.65;;
54464;SDS011;40374;49.480;20.016;2023-03-12T00:20:10;29.75;;;10.25;;
54464;SDS011;40374;49.480;20.016;2023-03-12T00:22:38;27.13;;;9.20;;
54464;SDS011;40374;49.480;20.016;2023-03-12T00:25:06;21.52;;;7.90;;
54464;SDS011;40374;49.480;20.016;2023-03-12T00:27:37;30.27;;;8.70;;
54464;SDS011;40374;49.480;20.016;2023-03-12T00:30:05;22.95;;;9.70;;
54464;SDS011;40374;49.480;20.016;2023-03-12T00:32:36;24.67;;;8.38;;
54464;SDS011;40374;49.480;20.016;2023-03-12T00:35:04;16.55;;;7.50;;
54464;SDS011;40374;49.480;20.016;2023-03-12T00:37:32;15.52;;;6.43;;
54464;SDS011;40374;49.480;20.016;2023-03-12T00:40:00;16.35;;;6.47;;
54464;SDS011;40374;49.480;20.016;2023-03-12T00:42:28;10.77;;;5.43;;
54464;SDS011;40374;49.480;20.016;2023-03-12T00:44:55;12.25;;;5.55;;
54464;SDS011;40374;49.480;20.016;2023-03-12T00:47:22;11.25;;;5.40;;
54464;SDS011;40374;49.480;20.016;2023-03-12T00:49:50;12.40;;;4.78;;
54464;SDS011;40374;49.480;20.016;2023-03-12T00:52:17;11.95;;;5.45;;
54464;SDS011;40374;49.480;20.016;2023-03-12T00:54:45;13.02;;;5.32;;
54464;SDS011;40374;49.480;20.016;2023-03-12T00:57:12;10.65;;;4.85;;
54464;SDS011;40374;49.480;20.016;2023-03-12T00:59:39;9.65;;;5.53;;
54464;SDS011;40374;49.480;20.016;2023-03-12T01:02:08;14.98;;;5.57;;
54464;SDS011;40374;49.480;20.016;2023-03-12T01:04:35;9.25;;;5.10;;
54464;SDS011;40374;49.480;20.016;2023-03-12T01:07:02;13.82;;;6.57;;
54464;SDS011;40374;49.480;20.016;2023-03-12T01:09:30;12.63;;;6.60;;
54464;SDS011;40374;49.480;20.016;2023-03-12T01:11:57;15.80;;;7.63;;
54464;SDS011;40374;49.480;20.016;2023-03-12T01:14:25;14.55;;;6.68;;
54464;SDS011;40374;49.480;20.016;2023-03-12T01:16:52;15.27;;;7.72;;
54464;SDS011;40374;49.480;20.016;2023-03-12T01:19:20;21.05;;;8.35;;
54464;SDS011;40374;49.480;20.016;2023-03-12T01:21:47;22.67;;;8.55;;
54464;SDS011;40374;49.480;20.016;2023-03-12T01:24:15;17.60;;;7.40;;
54464;SDS011;40374;49.480;20.016;2023-03-12T01:26:43;19.85;;;7.70;;
54464;SDS011;40374;49.480;20.016;2023-03-12T01:29:10;23.05;;;9.15;;
54464;SDS011;40374;49.480;20.016;2023-03-12T01:31:37;23.65;;;9.88;;
54464;SDS011;40374;49.480;20.016;2023-03-12T01:34:05;21.55;;;7.55;;
54464;SDS011;40374;49.480;20.016;2023-03-12T01:36:32;19.60;;;8.32;;
54464;SDS011;40374;49.480;20.016;2023-03-12T01:39:00;18.15;;;8.20;;
54464;SDS011;40374;49.480;20.016;2023-03-12T01:41:28;18.02;;;7.82;;
54464;SDS011;40374;49.480;20.016;2023-03-12T01:43:58;14.43;;;7.47;;
54464;SDS011;40374;49.480;20.016;2023-03-12T01:46:34;15.30;;;7.68;;
54464;SDS011;40374;49.480;20.016;2023-03-12T01:49:15;20.38;;;8.05;;
54464;SDS011;40374;49.480;20.016;2023-03-12T01:54:52;23.45;;;10.73;;
54464;SDS011;40374;49.480;20.016;2023-03-12T01:57:28;21.00;;;8.88;;
54464;SDS011;40374;49.480;20.016;2023-03-12T02:00:02;22.83;;;9.77;;
54464;SDS011;40374;49.480;20.016;2023-03-12T02:02:39;16.10;;;8.45;;
54464;SDS011;40374;49.480;20.016;2023-03-12T02:07:41;21.30;;;8.65;;
54464;SDS011;40374;49.480;20.016;2023-03-12T02:10:09;20.27;;;8.57;;
54464;SDS011;40374;49.480;20.016;2023-03-12T02:12:37;18.98;;;8.48;;
54464;SDS011;40374;49.480;20.016;2023-03-12T02:15:05;17.38;;;7.95;;
54464;SDS011;40374;49.480;20.016;2023-03-12T02:17:34;17.98;;;9.05;;
54464;SDS011;40374;49.480;20.016;2023-03-12T02:22:55;14.75;;;6.43;;
54464;SDS011;40374;49.480;20.016;2023-03-12T02:25:34;14.23;;;6.38;;
54464;SDS011;40374;49.480;20.016;2023-03-12T02:28:24;12.88;;;6.50;;
54464;SDS011;40374;49.480;20.016;2023-03-12T02:30:59;16.30;;;7.13;;
54464;SDS011;40374;49.480;20.016;2023-03-12T02:33:30;14.87;;;6.57;;
54464;SDS011;40374;49.480;20.016;2023-03-12T02:35:57;16.27;;;6.78;;
54464;SDS011;40374;49.480;20.016;2023-03-12T02:38:36;10.73;;;6.28;;
54464;SDS011;40374;49.480;20.016;2023-03-12T02:43:57;15.88;;;6.28;;
54464;SDS011;40374;49.480;20.016;2023-03-12T02:46:30;14.90;;;5.70;;
54464;SDS011;40374;49.480;20.016;2023-03-12T02:48:59;12.43;;;6.47;;
54464;SDS011;40374;49.480;20.016;2023-03-12T02:51:28;10.13;;;5.18;;
54464;SDS011;40374;49.480;20.016;2023-03-12T02:53:55;9.48;;;5.70;;
54464;SDS011;40374;49.480;20.016;2023-03-12T02:56:23;12.27;;;5.97;;
54464;SDS011;40374;49.480;20.016;2023-03-12T02:58:52;14.68;;;6.43;;
54464;SDS011;40374;49.480;20.016;2023-03-12T03:01:21;12.65;;;5.95;;
54464;SDS011;40374;49.480;20.016;2023-03-12T03:03:49;13.25;;;6.50;;
54464;SDS011;40374;49.480;20.016;2023-03-12T03:06:16;13.23;;;6.05;;
54464;SDS011;40374;49.480;20.016;2023-03-12T03:08:44;13.43;;;5.00;;
54464;SDS011;40374;49.480;20.016;2023-03-12T03:11:12;17.63;;;7.03;;
54464;SDS011;40374;49.480;20.016;2023-03-12T03:13:40;16.85;;;6.60;;
54464;SDS011;40374;49.480;20.016;2023-03-12T03:16:07;18.50;;;7.55;;
54464;SDS011;40374;49.480;20.016;2023-03-12T03:18:35;22.15;;;7.95;;
54464;SDS011;40374;49.480;20.016;2023-03-12T03:21:03;19.92;;;7.47;;
54464;SDS011;40374;49.480;20.016;2023-03-12T03:26:36;14.40;;;6.10;;
54464;SDS011;40374;49.480;20.016;2023-03-12T03:29:04;14.30;;;7.10;;
54464;SDS011;40374;49.480;20.016;2023-03-12T03:31:31;18.77;;;6.72;;
54464;SDS011;40374;49.480;20.016;2023-03-12T03:33:59;18.45;;;6.68;;
54464;SDS011;40374;49.480;20.016;2023-03-12T03:36:26;15.35;;;7.25;;
54464;SDS011;40374;49.480;20.016;2023-03-12T03:41:31;16.88;;;7.30;;
54464;SDS011;40374;49.480;20.016;2023-03-12T03:43:59;17.98;;;8.02;;
54464;SDS011;40374;49.480;20.016;2023-03-12T03:46:29;20.42;;;8.02;;
54464;SDS011;40374;49.480;20.016;2023-03-12T03:49:01;17.23;;;8.05;;
54464;SDS011;40374;49.480;20.016;2023-03-12T03:51:31;16.88;;;7.28;;
54464;SDS011;40374;49.480;20.016;2023-03-12T03:54:03;23.90;;;8.05;;
54464;SDS011;40374;49.480;20.016;2023-03-12T03:56:31;18.42;;;7.43;;
54464;SDS011;40374;49.480;20.016;2023-03-12T03:59:00;20.70;;;8.45;;
54464;SDS011;40374;49.480;20.016;2023-03-12T04:01:30;17.25;;;7.60;;
54464;SDS011;40374;49.480;20.016;2023-03-12T04:03:59;18.02;;;6.72;;
54464;SDS011;40374;49.480;20.016;2023-03-12T04:06:28;15.98;;;7.43;;
54464;SDS011;40374;49.480;20.016;2023-03-12T04:08:56;20.70;;;9.07;;
54464;SDS011;40374;49.480;20.016;2023-03-12T04:11:26;19.52;;;8.90;;
54464;SDS011;40374;49.480;20.016;2023-03-12T04:13:55;28.05;;;9.80;;
54464;SDS011;40374;49.480;20.016;2023-03-12T04:16:27;23.52;;;10.27;;
54464;SDS011;40374;49.480;20.016;2023-03-12T04:18:56;19.88;;;8.73;;
54464;SDS011;40374;49.480;20.016;2023-03-12T04:21:24;23.10;;;9.77;;
54464;SDS011;40374;49.480;20.016;2023-03-12T04:23:52;33.15;;;13.32;;
54464;SDS011;40374;49.480;20.016;2023-03-12T04:26:23;40.28;;;13.40;;
54464;SDS011;40374;49.480;20.016;2023-03-12T04:28:52;45.33;;;16.40;;
54464;SDS011;40374;49.480;20.016;2023-03-12T04:31:19;52.30;;;16.60;;
54464;SDS011;40374;49.480;20.016;2023-03-12T04:33:49;39.58;;;14.75;;
54464;SDS011;40374;49.480;20.016;2023-03-12T04:36:19;37.40;;;13.88;;
54464;SDS011;40374;49.480;20.016;2023-03-12T04:38:48;32.70;;;12.73;;
54464;SDS011;40374;49.480;20.016;2023-03-12T04:41:18;32.45;;;12.75;;
54464;SDS011;40374;49.480;20.016;2023-03-12T04:43:57;42.40;;;14.85;;
54464;SDS011;40374;49.480;20.016;2023-03-12T04:46:24;39.85;;;16.30;;
54464;SDS011;40374;49.480;20.016;2023-03-12T04:48:52;29.38;;;12.48;;
54464;SDS011;40374;49.480;20.016;2023-03-12T04:51:20;40.10;;;13.52;;
54464;SDS011;40374;49.480;20.016;2023-03-12T04:53:48;50.35;;;18.40;;
54464;SDS011;40374;49.480;20.016;2023-03-12T04:56:15;38.50;;;16.08;;
54464;SDS011;40374;49.480;20.016;2023-03-12T04:58:44;36.20;;;14.43;;
54464;SDS011;40374;49.480;20.016;2023-03-12T05:03:56;33.58;;;14.23;;
54464;SDS011;40374;49.480;20.016;2023-03-12T05:06:24;28.08;;;12.43;;
54464;SDS011;40374;49.480;20.016;2023-03-12T05:08:52;24.23;;;11.18;;
54464;SDS011;40374;49.480;20.016;2023-03-12T05:11:20;30.85;;;11.55;;
54464;SDS011;40374;49.480;20.016;2023-03-12T05:13:47;29.40;;;10.05;;
54464;SDS011;40374;49.480;20.016;2023-03-12T05:16:15;28.92;;;12.43;;
54464;SDS011;40374;49.480;20.016;2023-03-12T05:18:45;27.75;;;11.55;;
54464;SDS011;40374;49.480;20.016;2023-03-12T05:21:14;32.67;;;11.90;;
54464;SDS011;40374;49.480;20.016;2023-03-12T05:23:45;33.58;;;12.38;;
54464;SDS011;40374;49.480;20.016;2023-03-12T05:26:18;31.67;;;12.30;;
54464;SDS011;40374;49.480;20.016;2023-03-12T05:28:50;38.60;;;12.73;;
54464;SDS011;40374;49.480;20.016;2023-03-12T05:31:19;34.17;;;12.88;;
54464;SDS011;40374;49.480;20.016;2023-03-12T05:33:48;35.13;;;13.55;;
54464;SDS011;40374;49.480;20.016;2023-03-12T05:36:19;37.63;;;13.98;;
54464;SDS011;40374;49.480;20.016;2023-03-12T05:38:48;38.88;;;13.55;;
54464;SDS011;40374;49.480;20.016;2023-03-12T05:41:24;33.03;;;12.63;;
54464;SDS011;40374;49.480;20.016;2023-03-12T05:43:58;43.00;;;14.80;;
54464;SDS011;40374;49.480;20.016;2023-03-12T05:46:27;56.90;;;21.45;;
54464;SDS011;40374;49.480;20.016;2023-03-12T05:48:55;69.30;;;26.63;;
54464;SDS011;40374;49.480;20.016;2023-03-12T05:51:22;51.63;;;20.80;;
54464;SDS011;40374;49.480;20.016;2023-03-12T05:53:50;59.60;;;19.50;;
54464;SDS011;40374;49.480;20.016;2023-03-12T05:56:18;48.65;;;17.90;;
54464;SDS011;40374;49.480;20.016;2023-03-12T05:58:47;50.72;;;17.67;;
54464;SDS011;40374;49.480;20.016;2023-03-12T06:01:21;53.85;;;18.38;;
54464;SDS011;40374;49.480;20.016;2023-03-12T06:03:53;46.72;;;17.00;;
54464;SDS011;40374;49.480;20.016;2023-03-12T06:06:23;43.03;;;17.55;;
54464;SDS011;40374;49.480;20.016;2023-03-12T06:08:51;39.05;;;16.40;;
54464;SDS011;40374;49.480;20.016;2023-03-12T06:11:18;38.30;;;15.68;;
54464;SDS011;40374;49.480;20.016;2023-03-12T06:13:47;42.58;;;17.52;;
54464;SDS011;40374;49.480;20.016;2023-03-12T06:18:44;41.67;;;16.20;;
54464;SDS011;40374;49.480;20.016;2023-03-12T06:21:17;44.25;;;20.13;;
54464;SDS011;40374;49.480;20.016;2023-03-12T06:23:48;47.53;;;18.08;;
54464;SDS011;40374;49.480;20.016;2023-03-12T06:26:29;32.63;;;14.30;;
54464;SDS011;40374;49.480;20.016;2023-03-12T06:28:57;29.40;;;13.73;;
54464;SDS011;40374;49.480;20.016;2023-03-12T06:31:24;33.22;;;13.48;;
54464;SDS011;40374;49.480;20.016;2023-03-12T06:33:52;33.15;;;13.20;;
54464;SDS011;40374;49.480;20.016;2023-03-12T06:36:19;42.95;;;14.27;;
54464;SDS011;40374;49.480;20.016;2023-03-12T06:38:47;36.05;;;15.60;;
54464;SDS011;40374;49.480;20.016;2023-03-12T06:41:15;33.75;;;13.40;;
54464;SDS011;40374;49.480;20.016;2023-03-12T06:43:44;35.42;;;14.75;;
54464;SDS011;40374;49.480;20.016;2023-03-12T06:46:14;33.08;;;14.30;;
54464;SDS011;40374;49.480;20.016;2023-03-12T06:48:43;42.20;;;16.35;;
54464;SDS011;40374;49.480;20.016;2023-03-12T06:51:13;44.38;;;17.73;;
54464;SDS011;40374;49.480;20.016;2023-03-12T06:53:42;54.92;;;22.67;;
54464;SDS011;40374;49.480;20.016;2023-03-12T06:56:11;61.03;;;24.08;;
54464;SDS011;40374;49.480;20.016;2023-03-12T06:58:39;51.55;;;19.52;;
54464;SDS011;40374;49.480;20.016;2023-03-12T07:01:07;47.15;;;18.48;;
54464;SDS011;40374;49.480;20.016;2023-03-12T07:03:35;45.00;;;17.88;;
54464;SDS011;40374;49.480;20.016;2023-03-12T07:06:02;35.85;;;14.52;;
54464;SDS011;40374;49.480;20.016;2023-03-12T07:08:31;36.83;;;14.18;;
54464;SDS011;40374;49.480;20.016;2023-03-12T07:10:58;27.80;;;10.23;;
54464;SDS011;40374;49.480;20.016;2023-03-12T07:13:28;28.63;;;11.27;;
54464;SDS011;40374;49.480;20.016;2023-03-12T07:15:56;20.95;;;9.23;;
54464;SDS011;40374;49.480;20.016;2023-03-12T07:18:24;13.68;;;5.90;;
54464;SDS011;40374;49.480;20.016;2023-03-12T07:20:51;19.55;;;8.18;;
54464;SDS011;40374;49.480;20.016;2023-03-12T07:23:20;16.73;;;7.78;;
54464;SDS011;40374;49.480;20.016;2023-03-12T07:25:48;16.73;;;6.38;;
54464;SDS011;40374;49.480;20.016;2023-03-12T07:28:17;11.00;;;6.32;;
54464;SDS011;40374;49.480;20.016;2023-03-12T07:30:45;10.32;;;5.40;;
54464;SDS011;40374;49.480;20.016;2023-03-12T07:33:17;9.60;;;4.85;;
54464;SDS011;40374;49.480;20.016;2023-03-12T07:35:47;9.63;;;4.85;;
54464;SDS011;40374;49.480;20.016;2023-03-12T07:38:18;10.45;;;4.90;;
54464;SDS011;40374;49.480;20.016;2023-03-12T07:40:51;8.90;;;4.57;;
54464;SDS011;40374;49.480;20.016;2023-03-12T07:43:20;9.82;;;4.40;;
54464;SDS011;40374;49.480;20.016;2023-03-12T07:45:51;10.50;;;4.50;;
54464;SDS011;40374;49.480;20.016;2023-03-12T07:48:20;11.82;;;5.13;;
54464;SDS011;40374;49.480;20.016;2023-03-12T07:50:47;10.18;;;4.07;;
54464;SDS011;40374;49.480;20.016;2023-03-12T07:53:15;10.23;;;4.38;;
54464;SDS011;40374;49.480;20.016;2023-03-12T07:55:44;9.13;;;4.03;;
54464;SDS011;40374;49.480;20.016;2023-03-12T07:58:14;8.23;;;4.60;;
54464;SDS011;40374;49.480;20.016;2023-03-12T08:00:43;11.23;;;4.70;;
54464;SDS011;40374;49.480;20.016;2023-03-12T08:03:11;7.53;;;4.20;;
54464;SDS011;40374;49.480;20.016;2023-03-12T08:05:39;10.38;;;4.70;;
54464;SDS011;40374;49.480;20.016;2023-03-12T08:08:08;10.45;;;5.20;;
54464;SDS011;40374;49.480;20.016;2023-03-12T08:10:36;10.98;;;4.28;;
54464;SDS011;40374;49.480;20.016;2023-03-12T08:13:04;9.10;;;3.55;;
54464;SDS011;40374;49.480;20.016;2023-03-12T08:15:31;9.05;;;4.78;;
54464;SDS011;40374;49.480;20.016;2023-03-12T08:17:59;10.30;;;4.53;;
54464;SDS011;40374;49.480;20.016;2023-03-12T08:20:27;24.17;;;10.20;;
54464;SDS011;40374;49.480;20.016;2023-03-12T08:22:55;44.53;;;15.10;;
54464;SDS011;40374;49.480;20.016;2023-03-12T08:25:22;39.25;;;13.57;;
54464;SDS011;40374;49.480;20.016;2023-03-12T08:27:51;9.32;;;4.35;;
54464;SDS011;40374;49.480;20.016;2023-03-12T08:30:19;13.60;;;6.32;;
54464;SDS011;40374;49.480;20.016;2023-03-12T08:32:47;6.43;;;3.72;;
54464;SDS011;40374;49.480;20.016;2023-03-12T08:35:15;9.65;;;4.53;;
54464;SDS011;40374;49.480;20.016;2023-03-12T08:37:43;6.90;;;3.65;;
54464;SDS011;40374;49.480;20.016;2023-03-12T08:40:10;12.05;;;4.55;;
54464;SDS011;40374;49.480;20.016;2023-03-12T08:42:40;12.13;;;4.00;;
54464;SDS011;40374;49.480;20.016;2023-03-12T08:45:09;10.35;;;4.63;;
54464;SDS011;40374;49.480;20.016;2023-03-12T08:47:38;7.10;;;3.85;;
54464;SDS011;40374;49.480;20.016;2023-03-12T08:50:09;13.38;;;5.78;;
54464;SDS011;40374;49.480;20.016;2023-03-12T08:52:38;8.70;;;3.72;;
54464;SDS011;40374;49.480;20.016;2023-03-12T08:55:05;7.72;;;3.72;;
54464;SDS011;40374;49.480;20.016;2023-03-12T08:57:33;11.68;;;4.45;;
54464;SDS011;40374;49.480;20.016;2023-03-12T09:00:02;7.30;;;4.00;;
54464;SDS011;40374;49.480;20.016;2023-03-12T09:02:32;6.82;;;3.28;;
54464;SDS011;40374;49.480;20.016;2023-03-12T09:04:59;5.90;;;2.95;;
54464;SDS011;40374;49.480;20.016;2023-03-12T09:07:29;7.32;;;3.45;;
54464;SDS011;40374;49.480;20.016;2023-03-12T09:09:57;3.13;;;2.10;;
54464;SDS011;40374;49.480;20.016;2023-03-12T09:12:24;7.10;;;3.20;;
54464;SDS011;40374;49.480;20.016;2023-03-12T09:14:52;10.23;;;4.07;;
54464;SDS011;40374;49.480;20.016;2023-03-12T09:17:35;6.57;;;3.25;;
54464;SDS011;40374;49.480;20.016;2023-03-12T09:20:04;5.43;;;3.20;;
54464;SDS011;40374;49.480;20.016;2023-03-12T09:22:36;6.53;;;3.83;;
54464;SDS011;40374;49.480;20.016;2023-03-12T09:25:03;4.75;;;2.58;;
54464;SDS011;40374;49.480;20.016;2023-03-12T09:27:39;6.20;;;3.10;;
54464;SDS011;40374;49.480;20.016;2023-03-12T09:30:13;5.05;;;2.70;;
54464;SDS011;40374;49.480;20.016;2023-03-12T09:32:44;7.03;;;3.05;;
54464;SDS011;40374;49.480;20.016;2023-03-12T09:35:13;9.77;;;4.35;;
54464;SDS011;40374;49.480;20.016;2023-03-12T09:37:41;5.90;;;2.95;;
54464;SDS011;40374;49.480;20.016;2023-03-12T09:40:18;8.55;;;3.60;;
54464;SDS011;40374;49.480;20.016;2023-03-12T09:42:59;8.00;;;3.35;;
54464;SDS011;40374;49.480;20.016;2023-03-12T09:45:31;3.05;;;2.05;;
54464;SDS011;40374;49.480;20.016;2023-03-12T09:48:05;5.38;;;3.38;;
54464;SDS011;40374;49.480;20.016;2023-03-12T09:50:42;7.03;;;3.78;;
54464;SDS011;40374;49.480;20.016;2023-03-12T09:55:57;3.65;;;2.50;;
54464;SDS011;40374;49.480;20.016;2023-03-12T09:58:32;5.90;;;3.00;;
54464;SDS011;40374;49.480;20.016;2023-03-12T10:03:35;6.60;;;3.30;;
54464;SDS011;40374;49.480;20.016;2023-03-12T10:06:55;4.30;;;2.55;;
54464;SDS011;40374;49.480;20.016;2023-03-12T10:23:25;5.07;;;2.45;;
54464;SDS011;40374;49.480;20.016;2023-03-12T10:26:12;3.78;;;1.77;;
54464;SDS011;40374;49.480;20.016;2023-03-12T10:29:01;4.38;;;2.17;;
54464;SDS011;40374;49.480;20.016;2023-03-12T10:31:39;3.75;;;2.42;;
54464;SDS011;40374;49.480;20.016;2023-03-12T10:35:01;2.58;;;2.13;;
54464;SDS011;40374;49.480;20.016;2023-03-12T10:37:14;6.28;;;2.60;;
54464;SDS011;40374;49.480;20.016;2023-03-12T10:39:47;7.22;;;2.33;;
54464;SDS011;40374;49.480;20.016;2023-03-12T10:42:19;6.25;;;2.22;;
54464;SDS011;40374;49.480;20.016;2023-03-12T10:44:50;3.60;;;2.30;;
54464;SDS011;40374;49.480;20.016;2023-03-12T10:47:37;4.97;;;2.55;;
54464;SDS011;40374;49.480;20.016;2023-03-12T10:50:15;5.53;;;2.20;;
54464;SDS011;40374;49.480;20.016;2023-03-12T10:52:49;3.33;;;2.28;;
54464;SDS011;40374;49.480;20.016;2023-03-12T10:57:58;4.55;;;1.58;;
54464;SDS011;40374;49.480;20.016;2023-03-12T11:00:26;5.30;;;2.50;;
54464;SDS011;40374;49.480;20.016;2023-03-12T11:03:05;3.22;;;1.67;;
54464;SDS011;40374;49.480;20.016;2023-03-12T11:05:51;2.55;;;1.40;;
54464;SDS011;40374;49.480;20.016;2023-03-12T11:11:35;7.55;;;2.85;;
54464;SDS011;40374;49.480;20.016;2023-03-12T11:14:07;2.63;;;1.90;;
54464;SDS011;40374;49.480;20.016;2023-03-12T11:16:55;3.50;;;1.50;;
54464;SDS011;40374;49.480;20.016;2023-03-12T11:19:30;1.67;;;1.20;;
54464;SDS011;40374;49.480;20.016;2023-03-12T11:24:28;7.22;;;1.40;;
54464;SDS011;40374;49.480;20.016;2023-03-12T11:29:44;8.00;;;3.92;;
54464;SDS011;40374;49.480;20.016;2023-03-12T11:34:46;5.32;;;3.03;;
54464;SDS011;40374;49.480;20.016;2023-03-12T11:40:12;1.85;;;1.27;;
54464;SDS011;40374;49.480;20.016;2023-03-12T11:42:51;4.15;;;1.77;;
54464;SDS011;40374;49.480;20.016;2023-03-12T11:48:58;4.10;;;2.00;;
54464;SDS011;40374;49.480;20.016;2023-03-12T11:56:52;2.58;;;1.77;;
54464;SDS011;40374;49.480;20.016;2023-03-12T12:05:11;4.80;;;0.93;;
54464;SDS011;40374;49.480;20.016;2023-03-12T12:11:02;8.05;;;2.30;;
54464;SDS011;40374;49.480;20.016;2023-03-12T12:16:42;5.78;;;1.88;;
54464;SDS011;40374;49.480;20.016;2023-03-12T12:30:47;1.30;;;1.20;;
54464;SDS011;40374;49.480;20.016;2023-03-12T12:35:53;1.63;;;1.20;;
54464;SDS011;40374;49.480;20.016;2023-03-12T12:41:17;2.67;;;1.63;;
54464;SDS011;40374;49.480;20.016;2023-03-12T12:43:59;5.68;;;3.03;;
54464;SDS011;40374;49.480;20.016;2023-03-12T12:46:34;1.75;;;0.98;;
54464;SDS011;40374;49.480;20.016;2023-03-12T12:49:14;3.22;;;1.08;;
54464;SDS011;40374;49.480;20.016;2023-03-12T12:51:52;2.40;;;0.90;;
54464;SDS011;40374;49.480;20.016;2023-03-12T12:57:16;4.45;;;0.90;;
54464;SDS011;40374;49.480;20.016;2023-03-12T13:02:41;1.13;;;1.00;;
54464;SDS011;40374;49.480;20.016;2023-03-12T13:05:22;1.95;;;0.80;;
54464;SDS011;40374;49.480;20.016;2023-03-12T13:08:06;3.22;;;1.20;;
54464;SDS011;40374;49.480;20.016;2023-03-12T13:10:38;2.00;;;0.82;;
54464;SDS011;40374;49.480;20.016;2023-03-12T13:13:28;1.55;;;0.88;;
54464;SDS011;40374;49.480;20.016;2023-03-12T13:16:15;2.60;;;0.80;;
54464;SDS011;40374;49.480;20.016;2023-03-12T13:19:00;2.40;;;0.98;;
54464;SDS011;40374;49.480;20.016;2023-03-12T13:24:24;0.85;;;0.70;;
54464;SDS011;40374;49.480;20.016;2023-03-12T13:29:45;0.73;;;0.70;;
54464;SDS011;40374;49.480;20.016;2023-03-12T13:35:18;1.55;;;0.70;;
54464;SDS011;40374;49.480;20.016;2023-03-12T13:43:32;1.48;;;0.75;;
54464;SDS011;40374;49.480;20.016;2023-03-12T13:46:37;1.48;;;0.85;;
54464;SDS011;40374;49.480;20.016;2023-03-12T13:49:10;1.25;;;0.75;;
54464;SDS011;40374;49.480;20.016;2023-03-12T13:51:43;1.13;;;1.00;;
54464;SDS011;40374;49.480;20.016;2023-03-12T13:54:15;2.78;;;1.08;;
54464;SDS011;40374;49.480;20.016;2023-03-12T13:56:45;1.58;;;0.80;;
54464;SDS011;40374;49.480;20.016;2023-03-12T13:59:22;3.10;;;1.45;;
54464;SDS011;40374;49.480;20.016;2023-03-12T14:01:53;3.28;;;1.42;;
54464;SDS011;40374;49.480;20.016;2023-03-12T14:04:36;2.65;;;1.00;;
54464;SDS011;40374;49.480;20.016;2023-03-12T14:13:17;3.03;;;1.38;;
54464;SDS011;40374;49.480;20.016;2023-03-12T14:15:55;1.42;;;1.08;;
54464;SDS011;40374;49.480;20.016;2023-03-12T14:18:44;1.85;;;0.85;;
54464;SDS011;40374;49.480;20.016;2023-03-12T14:21:13;2.33;;;0.90;;
54464;SDS011;40374;49.480;20.016;2023-03-12T14:23:45;2.10;;;0.77;;
54464;SDS011;40374;49.480;20.016;2023-03-12T14:26:23;1.27;;;0.90;;
54464;SDS011;40374;49.480;20.016;2023-03-12T14:28:58;2.80;;;0.80;;
54464;SDS011;40374;49.480;20.016;2023-03-12T14:31:28;1.20;;;0.75;;
54464;SDS011;40374;49.480;20.016;2023-03-12T14:34:08;0.75;;;0.65;;
54464;SDS011;40374;49.480;20.016;2023-03-12T14:36:45;1.40;;;0.90;;
54464;SDS011;40374;49.480;20.016;2023-03-12T14:39:27;2.20;;;0.90;;
54464;SDS011;40374;49.480;20.016;2023-03-12T14:42:03;2.15;;;1.02;;
54464;SDS011;40374;49.480;20.016;2023-03-12T14:44:35;0.77;;;0.75;;
54464;SDS011;40374;49.480;20.016;2023-03-12T14:47:08;1.98;;;0.95;;
54464;SDS011;40374;49.480;20.016;2023-03-12T14:49:44;4.38;;;1.10;;
54464;SDS011;40374;49.480;20.016;2023-03-12T14:52:13;1.35;;;1.10;;
54464;SDS011;40374;49.480;20.016;2023-03-12T14:54:57;1.85;;;1.25;;
54464;SDS011;40374;49.480;20.016;2023-03-12T14:57:26;6.55;;;2.95;;
54464;SDS011;40374;49.480;20.016;2023-03-12T14:59:55;6.25;;;2.88;;
54464;SDS011;40374;49.480;20.016;2023-03-12T15:02:24;4.72;;;1.98;;
54464;SDS011;40374;49.480;20.016;2023-03-12T15:04:54;2.75;;;1.55;;
54464;SDS011;40374;49.480;20.016;2023-03-12T15:07:28;1.85;;;1.25;;
54464;SDS011;40374;49.480;20.016;2023-03-12T15:09:59;3.38;;;1.45;;
54464;SDS011;40374;49.480;20.016;2023-03-12T15:12:35;3.10;;;1.60;;
54464;SDS011;40374;49.480;20.016;2023-03-12T15:15:06;2.72;;;1.73;;
54464;SDS011;40374;49.480;20.016;2023-03-12T15:17:35;2.15;;;1.67;;
54464;SDS011;40374;49.480;20.016;2023-03-12T15:20:04;2.53;;;1.50;;
54464;SDS011;40374;49.480;20.016;2023-03-12T15:22:35;5.05;;;1.80;;
54464;SDS011;40374;49.480;20.016;2023-03-12T15:30:37;3.17;;;1.65;;
54464;SDS011;40374;49.480;20.016;2023-03-12T15:35:39;4.10;;;2.05;;
54464;SDS011;40374;49.480;20.016;2023-03-12T15:38:28;3.25;;;2.08;;
54464;SDS011;40374;49.480;20.016;2023-03-12T15:41:02;6.22;;;2.40;;
54464;SDS011;40374;49.480;20.016;2023-03-12T15:43:34;3.45;;;1.90;;
54464;SDS011;40374;49.480;20.016;2023-03-12T15:46:04;3.78;;;2.20;;
54464;SDS011;40374;49.480;20.016;2023-03-12T15:48:39;4.78;;;2.53;;
54464;SDS011;40374;49.480;20.016;2023-03-12T15:51:14;6.20;;;3.53;;
54464;SDS011;40374;49.480;20.016;2023-03-12T15:53:58;8.38;;;3.53;;
54464;SDS011;40374;49.480;20.016;2023-03-12T15:56:32;6.35;;;3.22;;
54464;SDS011;40374;49.480;20.016;2023-03-12T15:59:14;5.68;;;2.90;;
54464;SDS011;40374;49.480;20.016;2023-03-12T16:01:50;10.52;;;2.97;;
54464;SDS011;40374;49.480;20.016;2023-03-12T16:04:20;8.20;;;3.15;;
54464;SDS011;40374;49.480;20.016;2023-03-12T16:06:49;10.18;;;3.83;;
54464;SDS011;40374;49.480;20.016;2023-03-12T16:09:25;9.38;;;4.00;;
54464;SDS011;40374;49.480;20.016;2023-03-12T16:11:55;9.93;;;3.28;;
54464;SDS011;40374;49.480;20.016;2023-03-12T16:14:23;8.60;;;3.75;;
54464;SDS011;40374;49.480;20.016;2023-03-12T16:16:55;10.23;;;3.83;;
54464;SDS011;40374;49.480;20.016;2023-03-12T16:19:23;4.78;;;2.67;;
54464;SDS011;40374;49.480;20.016;2023-03-12T16:21:55;6.68;;;3.65;;
54464;SDS011;40374;49.480;20.016;2023-03-12T16:24:22;4.68;;;2.80;;
54464;SDS011;40374;49.480;20.016;2023-03-12T16:26:53;5.22;;;2.47;;
54464;SDS011;40374;49.480;20.016;2023-03-12T16:29:33;5.40;;;2.75;;
54464;SDS011;40374;49.480;20.016;2023-03-12T16:32:11;11.05;;;3.72;;
54464;SDS011;40374;49.480;20.016;2023-03-12T16:34:42;10.00;;;5.30;;
54464;SDS011;40374;49.480;20.016;2023-03-12T16:37:11;12.52;;;5.78;;
54464;SDS011;40374;49.480;20.016;2023-03-12T16:39:40;15.82;;;6.85;;
54464;SDS011;40374;49.480;20.016;2023-03-12T16:42:16;12.35;;;5.07;;
54464;SDS011;40374;49.480;20.016;2023-03-12T16:44:47;11.65;;;4.13;;
54464;SDS011;40374;49.480;20.016;2023-03-12T16:47:16;8.27;;;3.40;;
54464;SDS011;40374;49.480;20.016;2023-03-12T16:49:45;6.90;;;3.47;;
54464;SDS011;40374;49.480;20.016;2023-03-12T16:52:16;12.10;;;4.55;;
54464;SDS011;40374;49.480;20.016;2023-03-12T16:54:48;13.90;;;3.50;;
54464;SDS011;40374;49.480;20.016;2023-03-12T16:57:36;9.30;;;3.58;;